sensor_id;sensor_type;location;lat;lon;timestamp;P1;durP1;ratioP1;P2;durP2;ratioP2
28822;SDS011;15961;54.678;9.110;2023-05-14T00:01:04;0.20;;;0.20;;
28822;SDS011;15961;54.678;9.110;2023-05-14T00:03:32;0.20;;;0.20;;
28822;SDS011;15961;54.678;9.110;2023-05-14T00:05:57;0.20;;;0.20;;
28822;SDS011;15961;54.678;9.110;2023-05-14T00:08:23;0.20;;;0.20;;
28822;SDS011;15961;54.678;9.110;2023-05-14T00:10:48;0.20;;;0.20;;
28822;SDS011;15961;54.678;9.110;2023-05-14T00:13:14;0.30;;;0.30;;
28822;SDS011;15961;54.678;9.110;2023-05-14T00:15:39;0.13;;;0.13;;
28822;SDS011;15961;54.678;9.110;2023-05-14T00:18:05;0.20;;;0.20;;
28822;SDS011;15961;54.678;9.110;2023-05-14T00:20:31;0.20;;;0.20;;
28822;SDS011;15961;54.678;9.110;2023-05-14T00:22:56;0.20;;;0.20;;
28822;SDS011;15961;54.678;9.110;2023-05-14T00:25:22;0.17;;;0.17;;
28822;SDS011;15961;54.678;9.110;2023-05-14T00:27:47;0.20;;;0.20;;
28822;SDS011;15961;54.678;9.110;2023-05-14T00:30:13;0.10;;;0.10;;
28822;SDS011;15961;54.678;9.110;2023-05-14T00:32:39;0.10;;;0.10;;
28822;SDS011;15961;54.678;9.110;2023-05-14T00:35:04;0.20;;;0.20;;
28822;SDS011;15961;54.678;9.110;2023-05-14T00:37:30;0.20;;;0.20;;
28822;SDS011;15961;54.678;9.110;2023-05-14T00:39:56;0.20;;;0.20;;
28822;SDS011;15961;54.678;9.110;2023-05-14T00:42:22;0.20;;;0.20;;
28822;SDS011;15961;54.678;9.110;2023-05-14T00:44:47;0.20;;;0.20;;
28822;SDS011;15961;54.678;9.110;2023-05-14T00:47:13;0.10;;;0.10;;
28822;SDS011;15961;54.678;9.110;2023-05-14T00:49:38;0.20;;;0.20;;
28822;SDS011;15961;54.678;9.110;2023-05-14T00:52:05;0.10;;;0.10;;
28822;SDS011;15961;54.678;9.110;2023-05-14T00:54:31;0.10;;;0.10;;
28822;SDS011;15961;54.678;9.110;2023-05-14T00:56:57;0.17;;;0.17;;
28822;SDS011;15961;54.678;9.110;2023-05-14T00:59:24;0.20;;;0.20;;
28822;SDS011;15961;54.678;9.110;2023-05-14T01:01:49;0.20;;;0.20;;
28822;SDS011;15961;54.678;9.110;2023-05-14T01:04:15;0.10;;;0.10;;
28822;SDS011;15961;54.678;9.110;2023-05-14T01:06:45;0.20;;;0.20;;
28822;SDS011;15961;54.678;9.110;2023-05-14T01:09:25;0.10;;;0.10;;
28822;SDS011;15961;54.678;9.110;2023-05-14T01:15:08;0.10;;;0.10;;
28822;SDS011;15961;54.678;9.110;2023-05-14T01:20:07;0.10;;;0.10;;
28822;SDS011;15961;54.678;9.110;2023-05-14T01:22:33;0.20;;;0.20;;
28822;SDS011;15961;54.678;9.110;2023-05-14T01:24:59;0.20;;;0.20;;
28822;SDS011;15961;54.678;9.110;2023-05-14T01:27:27;0.20;;;0.20;;
28822;SDS011;15961;54.678;9.110;2023-05-14T01:30:02;0.20;;;0.20;;
28822;SDS011;15961;54.678;9.110;2023-05-14T01:32:34;0.20;;;0.20;;
28822;SDS011;15961;54.678;9.110;2023-05-14T01:35:00;0.20;;;0.20;;
28822;SDS011;15961;54.678;9.110;2023-05-14T01:37:26;0.20;;;0.20;;
28822;SDS011;15961;54.678;9.110;2023-05-14T01:39:54;0.20;;;0.20;;
28822;SDS011;15961;54.678;9.110;2023-05-14T01:42:20;0.10;;;0.10;;
28822;SDS011;15961;54.678;9.110;2023-05-14T01:44:47;0.20;;;0.20;;
28822;SDS011;15961;54.678;9.110;2023-05-14T01:47:12;0.20;;;0.20;;
28822;SDS011;15961;54.678;9.110;2023-05-14T01:49:38;0.20;;;0.20;;
28822;SDS011;15961;54.678;9.110;2023-05-14T01:52:03;0.20;;;0.20;;
28822;SDS011;15961;54.678;9.110;2023-05-14T01:54:29;0.15;;;0.15;;
28822;SDS011;15961;54.678;9.110;2023-05-14T01:56:55;0.20;;;0.20;;
28822;SDS011;15961;54.678;9.110;2023-05-14T01:59:20;0.20;;;0.20;;
28822;SDS011;15961;54.678;9.110;2023-05-14T02:01:46;0.20;;;0.20;;
28822;SDS011;15961;54.678;9.110;2023-05-14T02:04:11;0.20;;;0.20;;
28822;SDS011;15961;54.678;9.110;2023-05-14T02:06:37;0.20;;;0.20;;
28822;SDS011;15961;54.678;9.110;2023-05-14T02:09:03;0.20;;;0.20;;
28822;SDS011;15961;54.678;9.110;2023-05-14T02:11:29;0.20;;;0.20;;
28822;SDS011;15961;54.678;9.110;2023-05-14T02:13:55;0.20;;;0.20;;
28822;SDS011;15961;54.678;9.110;2023-05-14T02:16:20;0.15;;;0.15;;
28822;SDS011;15961;54.678;9.110;2023-05-14T02:18:46;0.28;;;0.28;;
28822;SDS011;15961;54.678;9.110;2023-05-14T02:21:11;0.20;;;0.20;;
28822;SDS011;15961;54.678;9.110;2023-05-14T02:23:37;0.15;;;0.15;;
28822;SDS011;15961;54.678;9.110;2023-05-14T02:26:02;0.20;;;0.20;;
28822;SDS011;15961;54.678;9.110;2023-05-14T02:28:28;0.20;;;0.20;;
28822;SDS011;15961;54.678;9.110;2023-05-14T02:30:57;0.20;;;0.20;;
28822;SDS011;15961;54.678;9.110;2023-05-14T02:33:24;0.20;;;0.20;;
28822;SDS011;15961;54.678;9.110;2023-05-14T02:35:49;0.20;;;0.20;;
28822;SDS011;15961;54.678;9.110;2023-05-14T02:38:15;0.20;;;0.20;;
28822;SDS011;15961;54.678;9.110;2023-05-14T02:40:40;0.10;;;0.10;;
28822;SDS011;15961;54.678;9.110;2023-05-14T02:43:06;0.20;;;0.20;;
28822;SDS011;15961;54.678;9.110;2023-05-14T02:45:32;0.20;;;0.20;;
28822;SDS011;15961;54.678;9.110;2023-05-14T02:47:57;0.20;;;0.20;;
28822;SDS011;15961;54.678;9.110;2023-05-14T02:50:23;0.10;;;0.10;;
28822;SDS011;15961;54.678;9.110;2023-05-14T02:52:48;0.20;;;0.20;;
28822;SDS011;15961;54.678;9.110;2023-05-14T02:55:14;0.20;;;0.20;;
28822;SDS011;15961;54.678;9.110;2023-05-14T02:57:39;0.20;;;0.20;;
28822;SDS011;15961;54.678;9.110;2023-05-14T03:00:05;0.30;;;0.30;;
28822;SDS011;15961;54.678;9.110;2023-05-14T03:02:31;0.30;;;0.30;;
28822;SDS011;15961;54.678;9.110;2023-05-14T03:04:57;0.20;;;0.20;;
28822;SDS011;15961;54.678;9.110;2023-05-14T03:07:22;0.20;;;0.20;;
28822;SDS011;15961;54.678;9.110;2023-05-14T03:09:48;0.20;;;0.20;;
28822;SDS011;15961;54.678;9.110;2023-05-14T03:12:13;0.10;;;0.10;;
28822;SDS011;15961;54.678;9.110;2023-05-14T03:14:39;0.20;;;0.20;;
28822;SDS011;15961;54.678;9.110;2023-05-14T03:17:04;0.15;;;0.15;;
28822;SDS011;15961;54.678;9.110;2023-05-14T03:19:30;0.20;;;0.20;;
28822;SDS011;15961;54.678;9.110;2023-05-14T03:21:55;0.20;;;0.20;;
28822;SDS011;15961;54.678;9.110;2023-05-14T03:24:21;0.20;;;0.20;;
28822;SDS011;15961;54.678;9.110;2023-05-14T03:26:46;0.20;;;0.20;;
28822;SDS011;15961;54.678;9.110;2023-05-14T03:29:12;0.20;;;0.20;;
28822;SDS011;15961;54.678;9.110;2023-05-14T03:31:40;0.30;;;0.30;;
28822;SDS011;15961;54.678;9.110;2023-05-14T03:34:06;0.20;;;0.20;;
28822;SDS011;15961;54.678;9.110;2023-05-14T03:36:31;0.20;;;0.20;;
28822;SDS011;15961;54.678;9.110;2023-05-14T03:38:58;0.17;;;0.17;;
28822;SDS011;15961;54.678;9.110;2023-05-14T03:41:23;0.20;;;0.20;;
28822;SDS011;15961;54.678;9.110;2023-05-14T03:43:49;0.20;;;0.20;;
28822;SDS011;15961;54.678;9.110;2023-05-14T03:46:14;0.30;;;0.30;;
28822;SDS011;15961;54.678;9.110;2023-05-14T03:48:39;0.20;;;0.20;;
28822;SDS011;15961;54.678;9.110;2023-05-14T03:51:06;0.20;;;0.20;;
28822;SDS011;15961;54.678;9.110;2023-05-14T03:53:32;0.20;;;0.20;;
28822;SDS011;15961;54.678;9.110;2023-05-14T03:55:58;0.20;;;0.20;;
28822;SDS011;15961;54.678;9.110;2023-05-14T03:58:23;0.20;;;0.20;;
28822;SDS011;15961;54.678;9.110;2023-05-14T04:00:49;0.10;;;0.10;;
28822;SDS011;15961;54.678;9.110;2023-05-14T04:03:14;0.10;;;0.10;;
28822;SDS011;15961;54.678;9.110;2023-05-14T04:05:40;0.20;;;0.20;;
28822;SDS011;15961;54.678;9.110;2023-05-14T04:08:05;0.10;;;0.10;;
28822;SDS011;15961;54.678;9.110;2023-05-14T04:10:31;0.20;;;0.20;;
28822;SDS011;15961;54.678;9.110;2023-05-14T04:12:56;0.20;;;0.20;;
28822;SDS011;15961;54.678;9.110;2023-05-14T04:15:22;0.20;;;0.20;;
28822;SDS011;15961;54.678;9.110;2023-05-14T04:17:47;0.10;;;0.10;;
28822;SDS011;15961;54.678;9.110;2023-05-14T04:20:14;0.20;;;0.20;;
28822;SDS011;15961;54.678;9.110;2023-05-14T04:22:39;0.30;;;0.30;;
28822;SDS011;15961;54.678;9.110;2023-05-14T04:25:05;0.10;;;0.10;;
28822;SDS011;15961;54.678;9.110;2023-05-14T04:27:31;0.20;;;0.20;;
28822;SDS011;15961;54.678;9.110;2023-05-14T04:29:57;0.20;;;0.20;;
28822;SDS011;15961;54.678;9.110;2023-05-14T04:32:22;0.20;;;0.20;;
28822;SDS011;15961;54.678;9.110;2023-05-14T04:34:48;0.10;;;0.10;;
28822;SDS011;15961;54.678;9.110;2023-05-14T04:37:14;0.10;;;0.10;;
28822;SDS011;15961;54.678;9.110;2023-05-14T04:39:39;0.20;;;0.20;;
28822;SDS011;15961;54.678;9.110;2023-05-14T04:42:05;0.20;;;0.20;;
28822;SDS011;15961;54.678;9.110;2023-05-14T04:44:32;0.20;;;0.20;;
28822;SDS011;15961;54.678;9.110;2023-05-14T04:46:58;0.20;;;0.20;;
28822;SDS011;15961;54.678;9.110;2023-05-14T04:49:24;0.20;;;0.20;;
28822;SDS011;15961;54.678;9.110;2023-05-14T04:51:49;0.20;;;0.20;;
28822;SDS011;15961;54.678;9.110;2023-05-14T04:54:15;0.20;;;0.20;;
28822;SDS011;15961;54.678;9.110;2023-05-14T04:56:40;0.20;;;0.20;;
28822;SDS011;15961;54.678;9.110;2023-05-14T04:59:06;0.20;;;0.20;;
28822;SDS011;15961;54.678;9.110;2023-05-14T05:01:31;0.20;;;0.20;;
28822;SDS011;15961;54.678;9.110;2023-05-14T05:03:57;0.20;;;0.20;;
28822;SDS011;15961;54.678;9.110;2023-05-14T05:06:22;0.10;;;0.10;;
28822;SDS011;15961;54.678;9.110;2023-05-14T05:08:48;0.10;;;0.10;;
28822;SDS011;15961;54.678;9.110;2023-05-14T05:11:13;0.20;;;0.20;;
28822;SDS011;15961;54.678;9.110;2023-05-14T05:13:39;0.10;;;0.10;;
28822;SDS011;15961;54.678;9.110;2023-05-14T05:16:05;0.30;;;0.30;;
28822;SDS011;15961;54.678;9.110;2023-05-14T05:18:31;0.20;;;0.20;;
28822;SDS011;15961;54.678;9.110;2023-05-14T05:20:56;0.20;;;0.20;;
28822;SDS011;15961;54.678;9.110;2023-05-14T05:23:22;0.20;;;0.20;;
28822;SDS011;15961;54.678;9.110;2023-05-14T05:25:48;0.15;;;0.15;;
28822;SDS011;15961;54.678;9.110;2023-05-14T05:28:14;0.10;;;0.10;;
28822;SDS011;15961;54.678;9.110;2023-05-14T05:30:40;0.28;;;0.28;;
28822;SDS011;15961;54.678;9.110;2023-05-14T05:33:05;0.20;;;0.20;;
28822;SDS011;15961;54.678;9.110;2023-05-14T05:35:31;0.20;;;0.20;;
28822;SDS011;15961;54.678;9.110;2023-05-14T05:37:56;0.20;;;0.20;;
28822;SDS011;15961;54.678;9.110;2023-05-14T05:40:22;0.20;;;0.20;;
28822;SDS011;15961;54.678;9.110;2023-05-14T05:42:48;0.20;;;0.20;;
28822;SDS011;15961;54.678;9.110;2023-05-14T05:45:13;0.20;;;0.20;;
28822;SDS011;15961;54.678;9.110;2023-05-14T05:47:39;0.10;;;0.10;;
28822;SDS011;15961;54.678;9.110;2023-05-14T05:50:04;0.10;;;0.10;;
28822;SDS011;15961;54.678;9.110;2023-05-14T05:52:31;0.20;;;0.20;;
28822;SDS011;15961;54.678;9.110;2023-05-14T05:54:56;0.20;;;0.20;;
28822;SDS011;15961;54.678;9.110;2023-05-14T05:57:22;0.20;;;0.20;;
28822;SDS011;15961;54.678;9.110;2023-05-14T05:59:48;0.20;;;0.20;;
28822;SDS011;15961;54.678;9.110;2023-05-14T06:02:13;0.13;;;0.13;;
28822;SDS011;15961;54.678;9.110;2023-05-14T06:04:39;0.20;;;0.20;;
28822;SDS011;15961;54.678;9.110;2023-05-14T06:07:04;0.10;;;0.10;;
28822;SDS011;15961;54.678;9.110;2023-05-14T06:09:30;0.20;;;0.20;;
28822;SDS011;15961;54.678;9.110;2023-05-14T06:11:55;0.10;;;0.10;;
28822;SDS011;15961;54.678;9.110;2023-05-14T06:14:21;0.10;;;0.10;;
28822;SDS011;15961;54.678;9.110;2023-05-14T06:16:47;0.20;;;0.20;;
28822;SDS011;15961;54.678;9.110;2023-05-14T06:19:12;0.15;;;0.15;;
28822;SDS011;15961;54.678;9.110;2023-05-14T06:21:38;0.20;;;0.20;;
28822;SDS011;15961;54.678;9.110;2023-05-14T06:24:03;0.10;;;0.10;;
28822;SDS011;15961;54.678;9.110;2023-05-14T06:26:29;0.20;;;0.20;;
28822;SDS011;15961;54.678;9.110;2023-05-14T06:28:55;0.10;;;0.10;;
28822;SDS011;15961;54.678;9.110;2023-05-14T06:31:20;0.10;;;0.10;;
28822;SDS011;15961;54.678;9.110;2023-05-14T06:33:46;0.20;;;0.20;;
28822;SDS011;15961;54.678;9.110;2023-05-14T06:36:11;0.10;;;0.10;;
28822;SDS011;15961;54.678;9.110;2023-05-14T06:38:37;0.15;;;0.15;;
28822;SDS011;15961;54.678;9.110;2023-05-14T06:41:02;0.10;;;0.10;;
28822;SDS011;15961;54.678;9.110;2023-05-14T06:43:28;0.20;;;0.20;;
28822;SDS011;15961;54.678;9.110;2023-05-14T06:45:54;0.20;;;0.20;;
28822;SDS011;15961;54.678;9.110;2023-05-14T06:48:19;0.10;;;0.10;;
28822;SDS011;15961;54.678;9.110;2023-05-14T06:50:45;0.20;;;0.20;;
28822;SDS011;15961;54.678;9.110;2023-05-14T06:53:12;0.20;;;0.20;;
28822;SDS011;15961;54.678;9.110;2023-05-14T06:55:38;0.10;;;0.10;;
28822;SDS011;15961;54.678;9.110;2023-05-14T06:58:07;0.20;;;0.20;;
28822;SDS011;15961;54.678;9.110;2023-05-14T07:00:33;0.10;;;0.10;;
28822;SDS011;15961;54.678;9.110;2023-05-14T07:02:58;0.20;;;0.20;;
28822;SDS011;15961;54.678;9.110;2023-05-14T07:05:24;0.10;;;0.10;;
28822;SDS011;15961;54.678;9.110;2023-05-14T07:07:50;0.10;;;0.10;;
28822;SDS011;15961;54.678;9.110;2023-05-14T07:10:15;0.10;;;0.10;;
28822;SDS011;15961;54.678;9.110;2023-05-14T07:12:41;0.10;;;0.10;;
28822;SDS011;15961;54.678;9.110;2023-05-14T07:15:07;0.10;;;0.10;;
28822;SDS011;15961;54.678;9.110;2023-05-14T07:17:33;0.20;;;0.20;;
28822;SDS011;15961;54.678;9.110;2023-05-14T07:19:58;0.10;;;0.10;;
28822;SDS011;15961;54.678;9.110;2023-05-14T07:22:24;0.10;;;0.10;;
28822;SDS011;15961;54.678;9.110;2023-05-14T07:24:49;0.10;;;0.10;;
28822;SDS011;15961;54.678;9.110;2023-05-14T07:27:15;0.10;;;0.10;;
28822;SDS011;15961;54.678;9.110;2023-05-14T07:29:43;0.20;;;0.20;;
28822;SDS011;15961;54.678;9.110;2023-05-14T07:32:09;0.10;;;0.10;;
28822;SDS011;15961;54.678;9.110;2023-05-14T07:34:34;0.10;;;0.10;;
28822;SDS011;15961;54.678;9.110;2023-05-14T07:37:00;0.10;;;0.10;;
28822;SDS011;15961;54.678;9.110;2023-05-14T07:39:26;0.10;;;0.10;;
28822;SDS011;15961;54.678;9.110;2023-05-14T07:41:51;0.10;;;0.10;;
28822;SDS011;15961;54.678;9.110;2023-05-14T07:44:18;0.10;;;0.10;;
28822;SDS011;15961;54.678;9.110;2023-05-14T07:46:44;0.10;;;0.10;;
28822;SDS011;15961;54.678;9.110;2023-05-14T07:49:10;0.10;;;0.10;;
28822;SDS011;15961;54.678;9.110;2023-05-14T07:51:36;0.10;;;0.10;;
28822;SDS011;15961;54.678;9.110;2023-05-14T07:54:01;0.10;;;0.10;;
28822;SDS011;15961;54.678;9.110;2023-05-14T07:56:27;0.10;;;0.10;;
28822;SDS011;15961;54.678;9.110;2023-05-14T07:58:52;0.10;;;0.10;;
28822;SDS011;15961;54.678;9.110;2023-05-14T08:01:18;0.00;;;0.00;;
28822;SDS011;15961;54.678;9.110;2023-05-14T08:03:43;0.10;;;0.10;;
28822;SDS011;15961;54.678;9.110;2023-05-14T08:06:09;0.10;;;0.10;;
28822;SDS011;15961;54.678;9.110;2023-05-14T08:08:35;0.10;;;0.10;;
28822;SDS011;15961;54.678;9.110;2023-05-14T08:11:01;0.10;;;0.10;;
28822;SDS011;15961;54.678;9.110;2023-05-14T08:13:27;0.10;;;0.10;;
28822;SDS011;15961;54.678;9.110;2023-05-14T08:15:52;0.10;;;0.10;;
28822;SDS011;15961;54.678;9.110;2023-05-14T08:18:18;0.00;;;0.00;;
28822;SDS011;15961;54.678;9.110;2023-05-14T08:20:44;0.10;;;0.10;;
28822;SDS011;15961;54.678;9.110;2023-05-14T08:23:09;0.10;;;0.10;;
28822;SDS011;15961;54.678;9.110;2023-05-14T08:25:35;0.10;;;0.10;;
28822;SDS011;15961;54.678;9.110;2023-05-14T08:28:01;0.10;;;0.10;;
28822;SDS011;15961;54.678;9.110;2023-05-14T08:30:26;0.10;;;0.10;;
28822;SDS011;15961;54.678;9.110;2023-05-14T08:32:52;0.10;;;0.10;;
28822;SDS011;15961;54.678;9.110;2023-05-14T08:35:18;0.10;;;0.10;;
28822;SDS011;15961;54.678;9.110;2023-05-14T08:37:43;0.10;;;0.10;;
28822;SDS011;15961;54.678;9.110;2023-05-14T08:40:11;0.05;;;0.05;;
28822;SDS011;15961;54.678;9.110;2023-05-14T08:42:37;0.10;;;0.10;;
28822;SDS011;15961;54.678;9.110;2023-05-14T08:45:04;0.10;;;0.10;;
28822;SDS011;15961;54.678;9.110;2023-05-14T08:47:36;0.10;;;0.10;;
28822;SDS011;15961;54.678;9.110;2023-05-14T08:50:03;0.10;;;0.10;;
28822;SDS011;15961;54.678;9.110;2023-05-14T08:52:30;0.05;;;0.05;;
28822;SDS011;15961;54.678;9.110;2023-05-14T08:54:57;0.10;;;0.10;;
28822;SDS011;15961;54.678;9.110;2023-05-14T08:57:25;0.10;;;0.10;;
28822;SDS011;15961;54.678;9.110;2023-05-14T08:59:52;0.10;;;0.10;;
28822;SDS011;15961;54.678;9.110;2023-05-14T09:02:26;0.10;;;0.10;;
28822;SDS011;15961;54.678;9.110;2023-05-14T09:04:57;0.00;;;0.00;;
28822;SDS011;15961;54.678;9.110;2023-05-14T09:07:23;0.10;;;0.10;;
28822;SDS011;15961;54.678;9.110;2023-05-14T09:09:53;0.10;;;0.10;;
28822;SDS011;15961;54.678;9.110;2023-05-14T09:12:19;0.10;;;0.10;;
28822;SDS011;15961;54.678;9.110;2023-05-14T09:14:45;0.10;;;0.10;;
28822;SDS011;15961;54.678;9.110;2023-05-14T09:17:12;0.10;;;0.10;;
28822;SDS011;15961;54.678;9.110;2023-05-14T09:19:38;0.00;;;0.00;;
28822;SDS011;15961;54.678;9.110;2023-05-14T09:22:08;0.00;;;0.00;;
28822;SDS011;15961;54.678;9.110;2023-05-14T09:24:38;0.10;;;0.10;;
28822;SDS011;15961;54.678;9.110;2023-05-14T09:27:04;0.00;;;0.00;;
28822;SDS011;15961;54.678;9.110;2023-05-14T09:29:30;0.00;;;0.00;;
28822;SDS011;15961;54.678;9.110;2023-05-14T09:31:57;0.00;;;0.00;;
28822;SDS011;15961;54.678;9.110;2023-05-14T09:34:24;0.03;;;0.03;;
28822;SDS011;15961;54.678;9.110;2023-05-14T09:36:55;0.03;;;0.03;;
28822;SDS011;15961;54.678;9.110;2023-05-14T09:39:29;0.00;;;0.00;;
28822;SDS011;15961;54.678;9.110;2023-05-14T09:41:55;0.00;;;0.00;;
28822;SDS011;15961;54.678;9.110;2023-05-14T09:44:21;0.00;;;0.00;;
28822;SDS011;15961;54.678;9.110;2023-05-14T09:46:48;0.00;;;0.00;;
28822;SDS011;15961;54.678;9.110;2023-05-14T09:49:14;0.00;;;0.00;;
28822;SDS011;15961;54.678;9.110;2023-05-14T09:51:40;0.00;;;0.00;;
28822;SDS011;15961;54.678;9.110;2023-05-14T09:54:06;0.00;;;0.00;;
28822;SDS011;15961;54.678;9.110;2023-05-14T09:56:34;0.10;;;0.10;;
28822;SDS011;15961;54.678;9.110;2023-05-14T09:59:00;0.00;;;0.00;;
28822;SDS011;15961;54.678;9.110;2023-05-14T10:01:27;0.00;;;0.00;;
28822;SDS011;15961;54.678;9.110;2023-05-14T10:03:54;0.00;;;0.00;;
28822;SDS011;15961;54.678;9.110;2023-05-14T10:06:24;0.00;;;0.00;;
28822;SDS011;15961;54.678;9.110;2023-05-14T10:08:55;0.10;;;0.10;;
28822;SDS011;15961;54.678;9.110;2023-05-14T10:11:24;0.00;;;0.00;;
28822;SDS011;15961;54.678;9.110;2023-05-14T10:16:33;0.00;;;0.00;;
28822;SDS011;15961;54.678;9.110;2023-05-14T10:19:11;0.00;;;0.00;;
28822;SDS011;15961;54.678;9.110;2023-05-14T10:21:39;0.00;;;0.00;;
28822;SDS011;15961;54.678;9.110;2023-05-14T10:24:05;0.00;;;0.00;;
28822;SDS011;15961;54.678;9.110;2023-05-14T10:26:38;0.00;;;0.00;;
28822;SDS011;15961;54.678;9.110;2023-05-14T10:29:06;0.00;;;0.00;;
28822;SDS011;15961;54.678;9.110;2023-05-14T10:34:31;0.00;;;0.00;;
28822;SDS011;15961;54.678;9.110;2023-05-14T10:37:17;0.10;;;0.10;;
28822;SDS011;15961;54.678;9.110;2023-05-14T10:39:57;0.00;;;0.00;;
28822;SDS011;15961;54.678;9.110;2023-05-14T10:42:32;0.00;;;0.00;;
28822;SDS011;15961;54.678;9.110;2023-05-14T10:45:05;0.00;;;0.00;;
28822;SDS011;15961;54.678;9.110;2023-05-14T10:47:35;0.00;;;0.00;;
28822;SDS011;15961;54.678;9.110;2023-05-14T10:50:07;0.00;;;0.00;;
28822;SDS011;15961;54.678;9.110;2023-05-14T10:52:35;0.00;;;0.00;;
28822;SDS011;15961;54.678;9.110;2023-05-14T10:55:02;0.00;;;0.00;;
28822;SDS011;15961;54.678;9.110;2023-05-14T10:57:31;0.00;;;0.00;;
28822;SDS011;15961;54.678;9.110;2023-05-14T10:59:59;0.00;;;0.00;;
28822;SDS011;15961;54.678;9.110;2023-05-14T11:02:26;0.00;;;0.00;;
28822;SDS011;15961;54.678;9.110;2023-05-14T11:05:03;0.00;;;0.00;;
28822;SDS011;15961;54.678;9.110;2023-05-14T11:07:31;0.00;;;0.00;;
28822;SDS011;15961;54.678;9.110;2023-05-14T11:09:59;0.10;;;0.10;;
28822;SDS011;15961;54.678;9.110;2023-05-14T11:12:26;0.00;;;0.00;;
28822;SDS011;15961;54.678;9.110;2023-05-14T11:14:52;0.00;;;0.00;;
28822;SDS011;15961;54.678;9.110;2023-05-14T11:17:18;0.00;;;0.00;;
28822;SDS011;15961;54.678;9.110;2023-05-14T11:19:44;0.00;;;0.00;;
28822;SDS011;15961;54.678;9.110;2023-05-14T11:22:10;0.00;;;0.00;;
28822;SDS011;15961;54.678;9.110;2023-05-14T11:24:38;0.00;;;0.00;;
28822;SDS011;15961;54.678;9.110;2023-05-14T11:27:07;0.00;;;0.00;;
28822;SDS011;15961;54.678;9.110;2023-05-14T11:29:36;0.00;;;0.00;;
28822;SDS011;15961;54.678;9.110;2023-05-14T11:32:05;0.00;;;0.00;;
28822;SDS011;15961;54.678;9.110;2023-05-14T11:34:31;0.00;;;0.00;;
28822;SDS011;15961;54.678;9.110;2023-05-14T11:37:01;0.00;;;0.00;;
28822;SDS011;15961;54.678;9.110;2023-05-14T11:39:30;0.00;;;0.00;;
28822;SDS011;15961;54.678;9.110;2023-05-14T11:42:11;0.00;;;0.00;;
28822;SDS011;15961;54.678;9.110;2023-05-14T11:44:38;0.00;;;0.00;;
28822;SDS011;15961;54.678;9.110;2023-05-14T11:47:05;0.00;;;0.00;;
28822;SDS011;15961;54.678;9.110;2023-05-14T11:49:31;0.00;;;0.00;;
28822;SDS011;15961;54.678;9.110;2023-05-14T11:52:06;0.00;;;0.00;;
28822;SDS011;15961;54.678;9.110;2023-05-14T11:54:34;0.00;;;0.00;;
28822;SDS011;15961;54.678;9.110;2023-05-14T11:57:05;0.10;;;0.10;;
28822;SDS011;15961;54.678;9.110;2023-05-14T11:59:33;0.00;;;0.00;;
28822;SDS011;15961;54.678;9.110;2023-05-14T12:01:59;0.00;;;0.00;;
28822;SDS011;15961;54.678;9.110;2023-05-14T12:04:25;0.00;;;0.00;;
28822;SDS011;15961;54.678;9.110;2023-05-14T12:06:52;0.00;;;0.00;;
28822;SDS011;15961;54.678;9.110;2023-05-14T12:09:19;0.00;;;0.00;;
28822;SDS011;15961;54.678;9.110;2023-05-14T12:11:45;0.03;;;0.03;;
28822;SDS011;15961;54.678;9.110;2023-05-14T12:14:14;0.00;;;0.00;;
28822;SDS011;15961;54.678;9.110;2023-05-14T12:16:44;0.00;;;0.00;;
28822;SDS011;15961;54.678;9.110;2023-05-14T12:19:12;0.00;;;0.00;;
28822;SDS011;15961;54.678;9.110;2023-05-14T12:21:39;0.00;;;0.00;;
28822;SDS011;15961;54.678;9.110;2023-05-14T12:24:14;0.00;;;0.00;;
28822;SDS011;15961;54.678;9.110;2023-05-14T12:26:45;0.00;;;0.00;;
28822;SDS011;15961;54.678;9.110;2023-05-14T12:29:12;0.00;;;0.00;;
28822;SDS011;15961;54.678;9.110;2023-05-14T12:31:48;0.00;;;0.00;;
28822;SDS011;15961;54.678;9.110;2023-05-14T12:34:14;0.00;;;0.00;;
28822;SDS011;15961;54.678;9.110;2023-05-14T12:36:41;0.00;;;0.00;;
28822;SDS011;15961;54.678;9.110;2023-05-14T12:39:07;0.00;;;0.00;;
28822;SDS011;15961;54.678;9.110;2023-05-14T12:41:33;0.00;;;0.00;;
28822;SDS011;15961;54.678;9.110;2023-05-14T12:44:00;0.00;;;0.00;;
28822;SDS011;15961;54.678;9.110;2023-05-14T12:46:27;0.00;;;0.00;;
28822;SDS011;15961;54.678;9.110;2023-05-14T12:48:53;0.00;;;0.00;;
28822;SDS011;15961;54.678;9.110;2023-05-14T12:51:19;0.00;;;0.00;;
28822;SDS011;15961;54.678;9.110;2023-05-14T12:53:44;0.00;;;0.00;;
28822;SDS011;15961;54.678;9.110;2023-05-14T12:56:10;0.00;;;0.00;;
28822;SDS011;15961;54.678;9.110;2023-05-14T12:58:36;0.00;;;0.00;;
28822;SDS011;15961;54.678;9.110;2023-05-14T13:01:02;0.00;;;0.00;;
28822;SDS011;15961;54.678;9.110;2023-05-14T13:03:28;0.00;;;0.00;;
28822;SDS011;15961;54.678;9.110;2023-05-14T13:05:53;0.00;;;0.00;;
28822;SDS011;15961;54.678;9.110;2023-05-14T13:08:22;0.00;;;0.00;;
28822;SDS011;15961;54.678;9.110;2023-05-14T13:10:53;0.00;;;0.00;;
28822;SDS011;15961;54.678;9.110;2023-05-14T13:13:20;0.00;;;0.00;;
28822;SDS011;15961;54.678;9.110;2023-05-14T13:15:46;0.00;;;0.00;;
28822;SDS011;15961;54.678;9.110;2023-05-14T13:18:12;0.00;;;0.00;;
28822;SDS011;15961;54.678;9.110;2023-05-14T13:20:38;0.00;;;0.00;;
28822;SDS011;15961;54.678;9.110;2023-05-14T13:23:04;0.00;;;0.00;;
28822;SDS011;15961;54.678;9.110;2023-05-14T13:25:29;0.00;;;0.00;;
28822;SDS011;15961;54.678;9.110;2023-05-14T13:27:55;0.00;;;0.00;;
28822;SDS011;15961;54.678;9.110;2023-05-14T13:30:21;0.00;;;0.00;;
28822;SDS011;15961;54.678;9.110;2023-05-14T13:32:46;0.00;;;0.00;;
28822;SDS011;15961;54.678;9.110;2023-05-14T13:35:12;0.00;;;0.00;;
28822;SDS011;15961;54.678;9.110;2023-05-14T13:37:37;0.00;;;0.00;;
28822;SDS011;15961;54.678;9.110;2023-05-14T13:40:03;0.00;;;0.00;;
28822;SDS011;15961;54.678;9.110;2023-05-14T13:42:32;0.00;;;0.00;;
28822;SDS011;15961;54.678;9.110;2023-05-14T13:44:58;0.00;;;0.00;;
28822;SDS011;15961;54.678;9.110;2023-05-14T13:47:24;0.00;;;0.00;;
28822;SDS011;15961;54.678;9.110;2023-05-14T13:49:54;0.00;;;0.00;;
28822;SDS011;15961;54.678;9.110;2023-05-14T13:52:20;0.00;;;0.00;;
28822;SDS011;15961;54.678;9.110;2023-05-14T13:54:46;0.00;;;0.00;;
28822;SDS011;15961;54.678;9.110;2023-05-14T13:57:12;0.00;;;0.00;;
28822;SDS011;15961;54.678;9.110;2023-05-14T13:59:38;0.00;;;0.00;;
28822;SDS011;15961;54.678;9.110;2023-05-14T14:02:03;0.00;;;0.00;;
28822;SDS011;15961;54.678;9.110;2023-05-14T14:04:29;0.00;;;0.00;;
28822;SDS011;15961;54.678;9.110;2023-05-14T14:06:55;0.00;;;0.00;;
28822;SDS011;15961;54.678;9.110;2023-05-14T14:09:21;0.00;;;0.00;;
28822;SDS011;15961;54.678;9.110;2023-05-14T14:11:47;0.00;;;0.00;;
28822;SDS011;15961;54.678;9.110;2023-05-14T14:14:13;0.10;;;0.10;;
28822;SDS011;15961;54.678;9.110;2023-05-14T14:16:38;0.00;;;0.00;;
28822;SDS011;15961;54.678;9.110;2023-05-14T14:19:04;0.10;;;0.10;;
28822;SDS011;15961;54.678;9.110;2023-05-14T14:21:30;0.00;;;0.00;;
28822;SDS011;15961;54.678;9.110;2023-05-14T14:23:56;0.00;;;0.00;;
28822;SDS011;15961;54.678;9.110;2023-05-14T14:26:22;0.00;;;0.00;;
28822;SDS011;15961;54.678;9.110;2023-05-14T14:28:47;0.00;;;0.00;;
28822;SDS011;15961;54.678;9.110;2023-05-14T14:31:13;0.00;;;0.00;;
28822;SDS011;15961;54.678;9.110;2023-05-14T14:33:38;0.00;;;0.00;;
28822;SDS011;15961;54.678;9.110;2023-05-14T14:36:04;0.00;;;0.00;;
28822;SDS011;15961;54.678;9.110;2023-05-14T14:38:30;0.00;;;0.00;;
28822;SDS011;15961;54.678;9.110;2023-05-14T14:40:56;0.00;;;0.00;;
28822;SDS011;15961;54.678;9.110;2023-05-14T14:43:23;0.00;;;0.00;;
28822;SDS011;15961;54.678;9.110;2023-05-14T14:45:48;0.00;;;0.00;;
28822;SDS011;15961;54.678;9.110;2023-05-14T14:48:21;0.00;;;0.00;;
28822;SDS011;15961;54.678;9.110;2023-05-14T14:50:47;0.00;;;0.00;;
28822;SDS011;15961;54.678;9.110;2023-05-14T14:53:13;0.00;;;0.00;;
28822;SDS011;15961;54.678;9.110;2023-05-14T14:55:38;0.00;;;0.00;;